sensor_id;sensor_type;location;lat;lon;timestamp;temperature;humidity
3208;DHT22;1616;52.394;9.756;2024-02-26T00:00:36;3.80;99.90
3208;DHT22;1616;52.394;9.756;2024-02-26T00:03:03;3.80;99.90
3208;DHT22;1616;52.394;9.756;2024-02-26T00:05:28;3.80;99.90
3208;DHT22;1616;52.394;9.756;2024-02-26T00:07:54;3.80;99.90
3208;DHT22;1616;52.394;9.756;2024-02-26T00:10:19;3.80;99.90
3208;DHT22;1616;52.394;9.756;2024-02-26T00:12:45;3.80;99.90
3208;DHT22;1616;52.394;9.756;2024-02-26T00:15:10;3.80;99.90
3208;DHT22;1616;52.394;9.756;2024-02-26T00:17:37;3.80;99.90
3208;DHT22;1616;52.394;9.756;2024-02-26T00:20:04;3.80;99.90
3208;DHT22;1616;52.394;9.756;2024-02-26T00:22:35;3.80;99.90
3208;DHT22;1616;52.394;9.756;2024-02-26T00:25:01;3.80;99.90
3208;DHT22;1616;52.394;9.756;2024-02-26T00:27:26;3.80;99.90
3208;DHT22;1616;52.394;9.756;2024-02-26T00:29:52;3.80;99.90
3208;DHT22;1616;52.394;9.756;2024-02-26T00:32:18;3.80;99.90
3208;DHT22;1616;52.394;9.756;2024-02-26T00:34:45;3.80;99.90
3208;DHT22;1616;52.394;9.756;2024-02-26T00:37:11;3.80;99.90
3208;DHT22;1616;52.394;9.756;2024-02-26T00:39:36;3.80;99.90
3208;DHT22;1616;52.394;9.756;2024-02-26T00:42:02;3.80;99.90
3208;DHT22;1616;52.394;9.756;2024-02-26T00:44:29;3.80;99.90
3208;DHT22;1616;52.394;9.756;2024-02-26T00:46:54;3.80;99.90
3208;DHT22;1616;52.394;9.756;2024-02-26T00:49:20;3.80;99.90
3208;DHT22;1616;52.394;9.756;2024-02-26T00:51:46;3.80;99.90
3208;DHT22;1616;52.394;9.756;2024-02-26T00:54:11;3.80;99.90
3208;DHT22;1616;52.394;9.756;2024-02-26T00:56:37;3.80;99.90
3208;DHT22;1616;52.394;9.756;2024-02-26T00:59:03;3.80;99.90
3208;DHT22;1616;52.394;9.756;2024-02-26T01:01:29;3.80;99.90
3208;DHT22;1616;52.394;9.756;2024-02-26T01:03:55;3.90;99.90
3208;DHT22;1616;52.394;9.756;2024-02-26T01:06:21;3.80;99.90
3208;DHT22;1616;52.394;9.756;2024-02-26T01:08:47;3.80;99.90
3208;DHT22;1616;52.394;9.756;2024-02-26T01:11:15;3.80;99.90
3208;DHT22;1616;52.394;9.756;2024-02-26T01:13:40;3.80;99.90
3208;DHT22;1616;52.394;9.756;2024-02-26T01:16:06;3.80;99.90
3208;DHT22;1616;52.394;9.756;2024-02-26T01:18:31;3.80;99.90
3208;DHT22;1616;52.394;9.756;2024-02-26T01:20:57;3.80;99.90
3208;DHT22;1616;52.394;9.756;2024-02-26T01:23:23;3.80;99.90
3208;DHT22;1616;52.394;9.756;2024-02-26T01:25:49;3.80;99.90
3208;DHT22;1616;52.394;9.756;2024-02-26T01:28:15;3.80;99.90
3208;DHT22;1616;52.394;9.756;2024-02-26T01:30:41;3.80;99.90
3208;DHT22;1616;52.394;9.756;2024-02-26T01:33:12;3.90;99.90
3208;DHT22;1616;52.394;9.756;2024-02-26T01:35:38;3.90;99.90
3208;DHT22;1616;52.394;9.756;2024-02-26T01:38:04;3.90;99.90
3208;DHT22;1616;52.394;9.756;2024-02-26T01:40:30;4.00;99.90
3208;DHT22;1616;52.394;9.756;2024-02-26T01:42:55;4.00;99.90
3208;DHT22;1616;52.394;9.756;2024-02-26T01:45:21;4.00;99.90
3208;DHT22;1616;52.394;9.756;2024-02-26T01:47:53;4.00;99.90
3208;DHT22;1616;52.394;9.756;2024-02-26T01:50:20;4.00;99.90
3208;DHT22;1616;52.394;9.756;2024-02-26T01:52:48;4.00;99.90
3208;DHT22;1616;52.394;9.756;2024-02-26T01:55:14;4.00;99.90
3208;DHT22;1616;52.394;9.756;2024-02-26T01:57:45;4.00;99.90
3208;DHT22;1616;52.394;9.756;2024-02-26T02:00:12;4.00;99.90
3208;DHT22;1616;52.394;9.756;2024-02-26T02:02:39;3.90;99.90
3208;DHT22;1616;52.394;9.756;2024-02-26T02:05:08;3.90;99.90
3208;DHT22;1616;52.394;9.756;2024-02-26T02:07:35;3.90;99.90
3208;DHT22;1616;52.394;9.756;2024-02-26T02:10:00;4.00;99.90
3208;DHT22;1616;52.394;9.756;2024-02-26T02:12:27;4.00;99.90
3208;DHT22;1616;52.394;9.756;2024-02-26T02:14:52;4.00;99.90
3208;DHT22;1616;52.394;9.756;2024-02-26T02:17:19;4.00;99.90
3208;DHT22;1616;52.394;9.756;2024-02-26T02:19:45;4.00;99.90
3208;DHT22;1616;52.394;9.756;2024-02-26T02:22:10;4.00;99.90
3208;DHT22;1616;52.394;9.756;2024-02-26T02:24:36;4.00;99.90
3208;DHT22;1616;52.394;9.756;2024-02-26T02:27:02;4.00;99.90
3208;DHT22;1616;52.394;9.756;2024-02-26T02:29:28;4.00;99.90
3208;DHT22;1616;52.394;9.756;2024-02-26T02:31:55;3.90;99.90
3208;DHT22;1616;52.394;9.756;2024-02-26T02:34:21;3.90;99.90
3208;DHT22;1616;52.394;9.756;2024-02-26T02:36:54;3.90;99.90
3208;DHT22;1616;52.394;9.756;2024-02-26T02:39:20;3.90;99.90
3208;DHT22;1616;52.394;9.756;2024-02-26T02:41:46;3.90;99.90
3208;DHT22;1616;52.394;9.756;2024-02-26T02:44:12;3.90;99.90
3208;DHT22;1616;52.394;9.756;2024-02-26T02:46:38;3.90;99.90
3208;DHT22;1616;52.394;9.756;2024-02-26T02:49:04;3.90;99.90
3208;DHT22;1616;52.394;9.756;2024-02-26T02:51:33;3.80;99.90
3208;DHT22;1616;52.394;9.756;2024-02-26T02:53:58;3.80;99.90
3208;DHT22;1616;52.394;9.756;2024-02-26T02:56:24;3.80;99.90
3208;DHT22;1616;52.394;9.756;2024-02-26T02:58:50;3.80;99.90
3208;DHT22;1616;52.394;9.756;2024-02-26T03:01:17;3.90;99.90
3208;DHT22;1616;52.394;9.756;2024-02-26T03:03:43;3.80;99.90
3208;DHT22;1616;52.394;9.756;2024-02-26T03:06:10;3.90;99.90
3208;DHT22;1616;52.394;9.756;2024-02-26T03:08:37;3.90;99.90
3208;DHT22;1616;52.394;9.756;2024-02-26T03:11:05;3.90;99.90
3208;DHT22;1616;52.394;9.756;2024-02-26T03:13:31;3.80;99.90
3208;DHT22;1616;52.394;9.756;2024-02-26T03:15:56;3.90;99.90
3208;DHT22;1616;52.394;9.756;2024-02-26T03:18:22;3.90;99.90
3208;DHT22;1616;52.394;9.756;2024-02-26T03:20:49;3.90;99.90
3208;DHT22;1616;52.394;9.756;2024-02-26T03:23:15;3.90;99.90
3208;DHT22;1616;52.394;9.756;2024-02-26T03:25:44;3.80;99.90
3208;DHT22;1616;52.394;9.756;2024-02-26T03:28:12;3.80;99.90
3208;DHT22;1616;52.394;9.756;2024-02-26T03:30:38;3.80;99.90
3208;DHT22;1616;52.394;9.756;2024-02-26T03:33:04;3.80;99.90
3208;DHT22;1616;52.394;9.756;2024-02-26T03:35:29;3.80;99.90
3208;DHT22;1616;52.394;9.756;2024-02-26T03:37:55;3.80;99.90
3208;DHT22;1616;52.394;9.756;2024-02-26T03:40:21;3.80;99.90
3208;DHT22;1616;52.394;9.756;2024-02-26T03:42:46;3.80;99.90
3208;DHT22;1616;52.394;9.756;2024-02-26T03:45:12;3.80;99.90
3208;DHT22;1616;52.394;9.756;2024-02-26T03:47:38;3.80;99.90
3208;DHT22;1616;52.394;9.756;2024-02-26T03:50:06;3.80;99.90
3208;DHT22;1616;52.394;9.756;2024-02-26T03:52:32;3.80;99.90
3208;DHT22;1616;52.394;9.756;2024-02-26T03:54:58;3.80;99.90
3208;DHT22;1616;52.394;9.756;2024-02-26T03:57:24;3.70;99.90
3208;DHT22;1616;52.394;9.756;2024-02-26T03:59:49;3.70;99.90
3208;DHT22;1616;52.394;9.756;2024-02-26T04:02:16;3.70;99.90
3208;DHT22;1616;52.394;9.756;2024-02-26T04:04:42;3.70;99.90
3208;DHT22;1616;52.394;9.756;2024-02-26T04:07:07;3.70;99.90
3208;DHT22;1616;52.394;9.756;2024-02-26T04:09:33;3.70;99.90
3208;DHT22;1616;52.394;9.756;2024-02-26T04:11:59;3.70;99.90
3208;DHT22;1616;52.394;9.756;2024-02-26T04:14:25;3.80;99.90
3208;DHT22;1616;52.394;9.756;2024-02-26T04:16:50;3.80;99.90
3208;DHT22;1616;52.394;9.756;2024-02-26T04:19:17;3.80;99.90
3208;DHT22;1616;52.394;9.756;2024-02-26T04:21:43;3.90;99.90
3208;DHT22;1616;52.394;9.756;2024-02-26T04:24:09;3.90;99.90
3208;DHT22;1616;52.394;9.756;2024-02-26T04:26:35;3.90;99.90
3208;DHT22;1616;52.394;9.756;2024-02-26T04:29:01;3.90;99.90
3208;DHT22;1616;52.394;9.756;2024-02-26T04:31:27;3.90;99.90
3208;DHT22;1616;52.394;9.756;2024-02-26T04:33:52;4.00;99.90
3208;DHT22;1616;52.394;9.756;2024-02-26T04:36:18;4.00;99.90
3208;DHT22;1616;52.394;9.756;2024-02-26T04:38:44;4.00;99.90
3208;DHT22;1616;52.394;9.756;2024-02-26T04:41:10;4.00;99.90
3208;DHT22;1616;52.394;9.756;2024-02-26T04:43:36;4.10;99.90
3208;DHT22;1616;52.394;9.756;2024-02-26T04:46:09;4.10;99.90
3208;DHT22;1616;52.394;9.756;2024-02-26T04:48:35;4.10;99.90
3208;DHT22;1616;52.394;9.756;2024-02-26T04:51:02;4.10;99.90
3208;DHT22;1616;52.394;9.756;2024-02-26T04:53:28;4.10;99.90
3208;DHT22;1616;52.394;9.756;2024-02-26T04:55:55;4.10;99.90
3208;DHT22;1616;52.394;9.756;2024-02-26T04:58:21;4.10;99.90
3208;DHT22;1616;52.394;9.756;2024-02-26T05:00:46;4.10;99.90
3208;DHT22;1616;52.394;9.756;2024-02-26T05:03:12;4.10;99.90
3208;DHT22;1616;52.394;9.756;2024-02-26T05:05:44;4.10;99.90
3208;DHT22;1616;52.394;9.756;2024-02-26T05:08:10;4.10;99.90
3208;DHT22;1616;52.394;9.756;2024-02-26T05:10:37;4.10;99.90
3208;DHT22;1616;52.394;9.756;2024-02-26T05:13:05;4.10;99.90
3208;DHT22;1616;52.394;9.756;2024-02-26T05:15:31;4.10;99.90
3208;DHT22;1616;52.394;9.756;2024-02-26T05:17:57;4.10;99.90
3208;DHT22;1616;52.394;9.756;2024-02-26T05:20:23;4.10;99.90
3208;DHT22;1616;52.394;9.756;2024-02-26T05:22:49;4.00;99.90
3208;DHT22;1616;52.394;9.756;2024-02-26T05:25:16;4.10;99.90
3208;DHT22;1616;52.394;9.756;2024-02-26T05:27:45;4.10;99.90
3208;DHT22;1616;52.394;9.756;2024-02-26T05:30:11;4.10;99.90
3208;DHT22;1616;52.394;9.756;2024-02-26T05:32:39;4.10;99.90
3208;DHT22;1616;52.394;9.756;2024-02-26T05:35:06;4.10;99.90
3208;DHT22;1616;52.394;9.756;2024-02-26T05:37:32;4.10;99.90
3208;DHT22;1616;52.394;9.756;2024-02-26T05:39:57;4.10;99.90
3208;DHT22;1616;52.394;9.756;2024-02-26T05:42:23;4.10;99.90
3208;DHT22;1616;52.394;9.756;2024-02-26T05:44:49;4.10;99.90
3208;DHT22;1616;52.394;9.756;2024-02-26T05:47:14;4.10;99.90
3208;DHT22;1616;52.394;9.756;2024-02-26T05:49:41;4.10;99.90
3208;DHT22;1616;52.394;9.756;2024-02-26T05:52:07;4.20;99.90
3208;DHT22;1616;52.394;9.756;2024-02-26T05:54:33;4.30;99.90
3208;DHT22;1616;52.394;9.756;2024-02-26T05:56:59;4.30;99.90
3208;DHT22;1616;52.394;9.756;2024-02-26T05:59:25;4.30;99.90
3208;DHT22;1616;52.394;9.756;2024-02-26T06:01:50;4.30;99.90
3208;DHT22;1616;52.394;9.756;2024-02-26T06:04:16;4.30;99.90
3208;DHT22;1616;52.394;9.756;2024-02-26T06:06:45;4.30;99.90
3208;DHT22;1616;52.394;9.756;2024-02-26T06:09:13;4.30;99.90
3208;DHT22;1616;52.394;9.756;2024-02-26T06:11:39;4.30;99.90
3208;DHT22;1616;52.394;9.756;2024-02-26T06:14:04;4.40;99.90
3208;DHT22;1616;52.394;9.756;2024-02-26T06:16:30;4.40;99.90
3208;DHT22;1616;52.394;9.756;2024-02-26T06:18:56;4.40;99.90
3208;DHT22;1616;52.394;9.756;2024-02-26T06:21:22;4.40;99.90
3208;DHT22;1616;52.394;9.756;2024-02-26T06:23:48;4.40;99.90
3208;DHT22;1616;52.394;9.756;2024-02-26T06:26:14;4.40;99.90
3208;DHT22;1616;52.394;9.756;2024-02-26T06:28:40;4.50;99.90
3208;DHT22;1616;52.394;9.756;2024-02-26T06:31:06;4.50;99.90
3208;DHT22;1616;52.394;9.756;2024-02-26T06:33:32;4.50;99.90
3208;DHT22;1616;52.394;9.756;2024-02-26T06:35:57;4.50;99.90
3208;DHT22;1616;52.394;9.756;2024-02-26T06:38:23;4.50;99.90
3208;DHT22;1616;52.394;9.756;2024-02-26T06:40:49;4.50;99.90
3208;DHT22;1616;52.394;9.756;2024-02-26T06:43:16;4.60;99.90
3208;DHT22;1616;52.394;9.756;2024-02-26T06:45:41;4.60;99.90
3208;DHT22;1616;52.394;9.756;2024-02-26T06:48:07;4.60;99.90
3208;DHT22;1616;52.394;9.756;2024-02-26T06:50:33;4.70;99.90
3208;DHT22;1616;52.394;9.756;2024-02-26T06:52:58;4.70;99.90
3208;DHT22;1616;52.394;9.756;2024-02-26T06:55:24;4.70;99.90
3208;DHT22;1616;52.394;9.756;2024-02-26T06:57:50;4.80;99.90
3208;DHT22;1616;52.394;9.756;2024-02-26T07:00:16;4.80;99.90
3208;DHT22;1616;52.394;9.756;2024-02-26T07:02:42;4.90;99.90
3208;DHT22;1616;52.394;9.756;2024-02-26T07:05:08;4.90;99.90
3208;DHT22;1616;52.394;9.756;2024-02-26T07:07:34;5.00;99.90
3208;DHT22;1616;52.394;9.756;2024-02-26T07:10:00;5.00;99.90
3208;DHT22;1616;52.394;9.756;2024-02-26T07:12:30;5.00;99.90
3208;DHT22;1616;52.394;9.756;2024-02-26T07:14:55;5.10;99.90
3208;DHT22;1616;52.394;9.756;2024-02-26T07:17:21;5.10;99.90
3208;DHT22;1616;52.394;9.756;2024-02-26T07:19:47;5.10;99.90
3208;DHT22;1616;52.394;9.756;2024-02-26T07:22:13;5.20;99.90
3208;DHT22;1616;52.394;9.756;2024-02-26T07:24:39;5.20;99.90
3208;DHT22;1616;52.394;9.756;2024-02-26T07:27:05;5.30;99.90
3208;DHT22;1616;52.394;9.756;2024-02-26T07:29:31;5.30;99.90
3208;DHT22;1616;52.394;9.756;2024-02-26T07:31:58;5.40;99.90
3208;DHT22;1616;52.394;9.756;2024-02-26T07:34:23;5.40;99.90
3208;DHT22;1616;52.394;9.756;2024-02-26T07:36:53;5.50;99.90
3208;DHT22;1616;52.394;9.756;2024-02-26T07:39:19;5.50;99.90
3208;DHT22;1616;52.394;9.756;2024-02-26T07:41:45;5.60;99.90
3208;DHT22;1616;52.394;9.756;2024-02-26T07:44:13;5.60;99.90
3208;DHT22;1616;52.394;9.756;2024-02-26T07:46:39;5.70;99.90
3208;DHT22;1616;52.394;9.756;2024-02-26T07:49:05;5.70;99.90
3208;DHT22;1616;52.394;9.756;2024-02-26T07:51:30;5.70;99.90
3208;DHT22;1616;52.394;9.756;2024-02-26T07:53:56;5.80;99.90
3208;DHT22;1616;52.394;9.756;2024-02-26T07:56:21;5.80;99.90
3208;DHT22;1616;52.394;9.756;2024-02-26T07:58:47;5.80;99.90
3208;DHT22;1616;52.394;9.756;2024-02-26T08:01:15;5.80;99.90
3208;DHT22;1616;52.394;9.756;2024-02-26T08:03:41;5.90;99.90
3208;DHT22;1616;52.394;9.756;2024-02-26T08:06:08;5.90;99.90
3208;DHT22;1616;52.394;9.756;2024-02-26T08:08:34;6.00;99.90
3208;DHT22;1616;52.394;9.756;2024-02-26T08:10:59;6.10;99.90
3208;DHT22;1616;52.394;9.756;2024-02-26T08:13:25;6.20;99.90
3208;DHT22;1616;52.394;9.756;2024-02-26T08:15:52;6.20;99.90
3208;DHT22;1616;52.394;9.756;2024-02-26T08:18:18;6.30;99.90
3208;DHT22;1616;52.394;9.756;2024-02-26T08:20:44;6.40;99.90
3208;DHT22;1616;52.394;9.756;2024-02-26T08:23:10;6.50;99.90
3208;DHT22;1616;52.394;9.756;2024-02-26T08:25:36;6.50;99.90
3208;DHT22;1616;52.394;9.756;2024-02-26T08:28:01;6.60;99.90
3208;DHT22;1616;52.394;9.756;2024-02-26T08:30:27;6.60;99.90
3208;DHT22;1616;52.394;9.756;2024-02-26T08:32:53;6.70;99.90
3208;DHT22;1616;52.394;9.756;2024-02-26T08:35:19;6.70;99.90
3208;DHT22;1616;52.394;9.756;2024-02-26T08:37:45;6.80;99.90
3208;DHT22;1616;52.394;9.756;2024-02-26T08:40:11;6.80;99.90
3208;DHT22;1616;52.394;9.756;2024-02-26T08:42:38;6.90;99.90
3208;DHT22;1616;52.394;9.756;2024-02-26T08:45:04;7.00;99.90
3208;DHT22;1616;52.394;9.756;2024-02-26T08:47:30;7.10;99.90
3208;DHT22;1616;52.394;9.756;2024-02-26T08:49:56;7.10;99.90
3208;DHT22;1616;52.394;9.756;2024-02-26T08:52:21;7.20;99.90
3208;DHT22;1616;52.394;9.756;2024-02-26T08:54:47;7.20;99.90
3208;DHT22;1616;52.394;9.756;2024-02-26T08:57:13;7.30;99.90
3208;DHT22;1616;52.394;9.756;2024-02-26T08:59:38;7.30;99.90
3208;DHT22;1616;52.394;9.756;2024-02-26T09:02:04;7.40;99.90
3208;DHT22;1616;52.394;9.756;2024-02-26T09:04:29;7.40;99.90
3208;DHT22;1616;52.394;9.756;2024-02-26T09:06:55;7.50;99.90
3208;DHT22;1616;52.394;9.756;2024-02-26T09:09:20;7.50;99.90
3208;DHT22;1616;52.394;9.756;2024-02-26T09:11:48;7.50;99.90
3208;DHT22;1616;52.394;9.756;2024-02-26T09:14:14;7.60;99.90
3208;DHT22;1616;52.394;9.756;2024-02-26T09:16:40;7.60;99.90
3208;DHT22;1616;52.394;9.756;2024-02-26T09:19:05;7.70;99.90
3208;DHT22;1616;52.394;9.756;2024-02-26T09:21:33;7.80;99.90
3208;DHT22;1616;52.394;9.756;2024-02-26T09:23:58;7.80;99.90
3208;DHT22;1616;52.394;9.756;2024-02-26T09:26:24;7.80;99.90
3208;DHT22;1616;52.394;9.756;2024-02-26T09:28:51;7.90;99.90
3208;DHT22;1616;52.394;9.756;2024-02-26T09:31:17;7.90;99.90
3208;DHT22;1616;52.394;9.756;2024-02-26T09:33:43;8.00;99.90
3208;DHT22;1616;52.394;9.756;2024-02-26T09:36:09;8.10;99.90
3208;DHT22;1616;52.394;9.756;2024-02-26T09:38:37;8.20;99.90
3208;DHT22;1616;52.394;9.756;2024-02-26T09:41:06;8.30;99.90
3208;DHT22;1616;52.394;9.756;2024-02-26T09:43:35;8.30;99.90
3208;DHT22;1616;52.394;9.756;2024-02-26T09:46:02;8.30;99.90
3208;DHT22;1616;52.394;9.756;2024-02-26T09:48:29;8.40;99.90
3208;DHT22;1616;52.394;9.756;2024-02-26T09:50:55;8.40;99.90
3208;DHT22;1616;52.394;9.756;2024-02-26T09:53:21;8.40;99.90
3208;DHT22;1616;52.394;9.756;2024-02-26T09:55:47;8.40;99.90
3208;DHT22;1616;52.394;9.756;2024-02-26T09:58:13;8.50;99.90
3208;DHT22;1616;52.394;9.756;2024-02-26T10:00:46;8.50;99.90
3208;DHT22;1616;52.394;9.756;2024-02-26T10:03:15;8.60;99.70
3208;DHT22;1616;52.394;9.756;2024-02-26T10:05:41;8.60;99.70
3208;DHT22;1616;52.394;9.756;2024-02-26T10:08:09;8.70;99.50
3208;DHT22;1616;52.394;9.756;2024-02-26T10:10:36;8.80;99.20
3208;DHT22;1616;52.394;9.756;2024-02-26T10:13:03;8.80;99.10
3208;DHT22;1616;52.394;9.756;2024-02-26T10:15:35;8.80;98.80
3208;DHT22;1616;52.394;9.756;2024-02-26T10:18:05;8.90;98.60
3208;DHT22;1616;52.394;9.756;2024-02-26T10:20:31;8.90;98.50
3208;DHT22;1616;52.394;9.756;2024-02-26T10:22:57;9.00;98.60
3208;DHT22;1616;52.394;9.756;2024-02-26T10:25:23;9.00;98.50
3208;DHT22;1616;52.394;9.756;2024-02-26T10:27:49;9.10;98.50
3208;DHT22;1616;52.394;9.756;2024-02-26T10:30:22;9.10;98.20
3208;DHT22;1616;52.394;9.756;2024-02-26T10:32:51;9.10;97.80
3208;DHT22;1616;52.394;9.756;2024-02-26T10:35:17;9.10;97.70
3208;DHT22;1616;52.394;9.756;2024-02-26T10:37:44;9.20;97.60
3208;DHT22;1616;52.394;9.756;2024-02-26T10:40:13;9.20;97.20
3208;DHT22;1616;52.394;9.756;2024-02-26T10:42:40;9.20;96.80
3208;DHT22;1616;52.394;9.756;2024-02-26T10:45:07;9.20;96.70
3208;DHT22;1616;52.394;9.756;2024-02-26T10:47:35;9.30;96.80
3208;DHT22;1616;52.394;9.756;2024-02-26T10:50:02;9.20;96.60
3208;DHT22;1616;52.394;9.756;2024-02-26T10:52:32;9.30;96.70
3208;DHT22;1616;52.394;9.756;2024-02-26T10:55:04;9.30;96.50
3208;DHT22;1616;52.394;9.756;2024-02-26T10:57:39;9.30;96.50
3208;DHT22;1616;52.394;9.756;2024-02-26T11:00:07;9.40;96.50
3208;DHT22;1616;52.394;9.756;2024-02-26T11:02:36;9.40;96.30
3208;DHT22;1616;52.394;9.756;2024-02-26T11:05:06;9.40;96.30
3208;DHT22;1616;52.394;9.756;2024-02-26T11:07:33;9.60;96.40
3208;DHT22;1616;52.394;9.756;2024-02-26T11:10:01;9.60;97.70
3208;DHT22;1616;52.394;9.756;2024-02-26T11:12:28;9.70;96.20
3208;DHT22;1616;52.394;9.756;2024-02-26T11:14:55;9.70;95.80
3208;DHT22;1616;52.394;9.756;2024-02-26T11:17:22;9.70;95.40
3208;DHT22;1616;52.394;9.756;2024-02-26T11:19:50;9.70;95.20
3208;DHT22;1616;52.394;9.756;2024-02-26T11:22:16;9.70;95.30
3208;DHT22;1616;52.394;9.756;2024-02-26T11:24:42;9.80;95.30
3208;DHT22;1616;52.394;9.756;2024-02-26T11:27:10;9.80;95.30
3208;DHT22;1616;52.394;9.756;2024-02-26T11:30:03;9.80;95.20
3208;DHT22;1616;52.394;9.756;2024-02-26T11:32:30;10.00;95.00
3208;DHT22;1616;52.394;9.756;2024-02-26T11:35:00;10.00;94.60
3208;DHT22;1616;52.394;9.756;2024-02-26T11:37:27;10.10;94.40
3208;DHT22;1616;52.394;9.756;2024-02-26T11:39:53;10.20;94.40
3208;DHT22;1616;52.394;9.756;2024-02-26T11:42:23;10.30;94.10
3208;DHT22;1616;52.394;9.756;2024-02-26T11:44:49;10.30;93.90
3208;DHT22;1616;52.394;9.756;2024-02-26T11:47:20;10.40;93.90
3208;DHT22;1616;52.394;9.756;2024-02-26T11:49:46;10.50;93.60
3208;DHT22;1616;52.394;9.756;2024-02-26T11:52:15;10.60;93.50
3208;DHT22;1616;52.394;9.756;2024-02-26T11:54:50;10.70;93.30
3208;DHT22;1616;52.394;9.756;2024-02-26T11:57:30;10.70;92.80
3208;DHT22;1616;52.394;9.756;2024-02-26T12:00:10;10.80;92.60
3208;DHT22;1616;52.394;9.756;2024-02-26T12:02:52;10.80;92.30
3208;DHT22;1616;52.394;9.756;2024-02-26T12:05:24;10.80;92.10
3208;DHT22;1616;52.394;9.756;2024-02-26T12:07:54;10.90;92.40
3208;DHT22;1616;52.394;9.756;2024-02-26T12:10:34;11.00;92.20
3208;DHT22;1616;52.394;9.756;2024-02-26T12:13:13;11.10;92.00
3208;DHT22;1616;52.394;9.756;2024-02-26T12:15:46;11.30;91.70
3208;DHT22;1616;52.394;9.756;2024-02-26T12:18:20;11.30;91.50
3208;DHT22;1616;52.394;9.756;2024-02-26T12:21:01;11.40;91.40
3208;DHT22;1616;52.394;9.756;2024-02-26T12:23:26;11.50;91.10
3208;DHT22;1616;52.394;9.756;2024-02-26T12:25:58;11.60;90.70
3208;DHT22;1616;52.394;9.756;2024-02-26T12:28:30;11.70;90.40
3208;DHT22;1616;52.394;9.756;2024-02-26T12:30:56;11.80;91.30
3208;DHT22;1616;52.394;9.756;2024-02-26T12:33:26;11.80;88.90
3208;DHT22;1616;52.394;9.756;2024-02-26T12:35:53;11.80;88.40
3208;DHT22;1616;52.394;9.756;2024-02-26T12:38:18;11.90;87.50
3208;DHT22;1616;52.394;9.756;2024-02-26T12:40:45;11.80;86.40
3208;DHT22;1616;52.394;9.756;2024-02-26T12:43:10;11.80;86.40
3208;DHT22;1616;52.394;9.756;2024-02-26T12:45:41;11.70;85.10
3208;DHT22;1616;52.394;9.756;2024-02-26T12:48:08;11.80;83.70
3208;DHT22;1616;52.394;9.756;2024-02-26T12:50:34;11.80;83.50
3208;DHT22;1616;52.394;9.756;2024-02-26T12:53:00;11.90;83.90
3208;DHT22;1616;52.394;9.756;2024-02-26T12:55:26;12.00;83.70
3208;DHT22;1616;52.394;9.756;2024-02-26T12:57:52;12.20;84.00
3208;DHT22;1616;52.394;9.756;2024-02-26T13:00:22;12.30;84.10
3208;DHT22;1616;52.394;9.756;2024-02-26T13:02:50;12.40;86.80
3208;DHT22;1616;52.394;9.756;2024-02-26T13:05:18;12.40;82.20
3208;DHT22;1616;52.394;9.756;2024-02-26T13:07:45;12.20;81.80
3208;DHT22;1616;52.394;9.756;2024-02-26T13:10:13;12.20;81.40
3208;DHT22;1616;52.394;9.756;2024-02-26T13:12:46;12.20;82.00
3208;DHT22;1616;52.394;9.756;2024-02-26T13:15:17;12.10;81.50
3208;DHT22;1616;52.394;9.756;2024-02-26T13:17:43;12.10;81.50
3208;DHT22;1616;52.394;9.756;2024-02-26T13:20:09;12.10;81.80
3208;DHT22;1616;52.394;9.756;2024-02-26T13:22:39;12.00;81.50
3208;DHT22;1616;52.394;9.756;2024-02-26T13:25:06;12.00;81.70
3208;DHT22;1616;52.394;9.756;2024-02-26T13:27:34;11.90;80.90
3208;DHT22;1616;52.394;9.756;2024-02-26T13:30:11;11.90;80.90
3208;DHT22;1616;52.394;9.756;2024-02-26T13:32:38;11.80;81.00
3208;DHT22;1616;52.394;9.756;2024-02-26T13:35:13;11.70;81.10
3208;DHT22;1616;52.394;9.756;2024-02-26T13:37:40;11.60;81.40
3208;DHT22;1616;52.394;9.756;2024-02-26T13:40:07;11.50;81.90
3208;DHT22;1616;52.394;9.756;2024-02-26T13:42:34;11.50;82.80
3208;DHT22;1616;52.394;9.756;2024-02-26T13:45:00;11.50;83.00
3208;DHT22;1616;52.394;9.756;2024-02-26T13:47:26;11.40;82.60
3208;DHT22;1616;52.394;9.756;2024-02-26T13:49:51;11.30;82.90
3208;DHT22;1616;52.394;9.756;2024-02-26T13:52:17;11.20;82.90
3208;DHT22;1616;52.394;9.756;2024-02-26T13:54:44;11.20;82.90
3208;DHT22;1616;52.394;9.756;2024-02-26T13:57:10;11.10;83.20
3208;DHT22;1616;52.394;9.756;2024-02-26T13:59:35;11.10;82.80
3208;DHT22;1616;52.394;9.756;2024-02-26T14:02:01;11.00;83.00
3208;DHT22;1616;52.394;9.756;2024-02-26T14:04:26;10.90;83.00
3208;DHT22;1616;52.394;9.756;2024-02-26T14:06:52;10.90;82.80
3208;DHT22;1616;52.394;9.756;2024-02-26T14:09:17;10.90;82.70
3208;DHT22;1616;52.394;9.756;2024-02-26T14:11:47;10.80;82.80
3208;DHT22;1616;52.394;9.756;2024-02-26T14:14:13;10.80;82.60
3208;DHT22;1616;52.394;9.756;2024-02-26T14:16:39;10.70;83.10
3208;DHT22;1616;52.394;9.756;2024-02-26T14:19:05;10.70;82.50
3208;DHT22;1616;52.394;9.756;2024-02-26T14:21:32;10.70;82.90
3208;DHT22;1616;52.394;9.756;2024-02-26T14:23:58;10.70;82.50
3208;DHT22;1616;52.394;9.756;2024-02-26T14:26:24;10.60;82.40
3208;DHT22;1616;52.394;9.756;2024-02-26T14:28:49;10.70;82.50
3208;DHT22;1616;52.394;9.756;2024-02-26T14:31:19;10.70;82.60
3208;DHT22;1616;52.394;9.756;2024-02-26T14:33:45;10.70;82.50
3208;DHT22;1616;52.394;9.756;2024-02-26T14:36:11;10.60;82.40
3208;DHT22;1616;52.394;9.756;2024-02-26T14:38:37;10.60;82.40
3208;DHT22;1616;52.394;9.756;2024-02-26T14:41:05;10.60;82.50
3208;DHT22;1616;52.394;9.756;2024-02-26T14:43:31;10.50;82.70
3208;DHT22;1616;52.394;9.756;2024-02-26T14:46:01;10.50;83.60
3208;DHT22;1616;52.394;9.756;2024-02-26T14:48:27;10.50;86.50
3208;DHT22;1616;52.394;9.756;2024-02-26T14:50:53;10.50;84.10
3208;DHT22;1616;52.394;9.756;2024-02-26T14:53:19;10.50;84.00
3208;DHT22;1616;52.394;9.756;2024-02-26T14:55:44;10.50;84.00
3208;DHT22;1616;52.394;9.756;2024-02-26T14:58:10;10.40;83.50
3208;DHT22;1616;52.394;9.756;2024-02-26T15:00:38;10.40;84.00
3208;DHT22;1616;52.394;9.756;2024-02-26T15:03:03;10.40;83.90
3208;DHT22;1616;52.394;9.756;2024-02-26T15:05:29;10.30;84.20
3208;DHT22;1616;52.394;9.756;2024-02-26T15:07:55;10.30;84.60
3208;DHT22;1616;52.394;9.756;2024-02-26T15:10:20;10.30;85.10
3208;DHT22;1616;52.394;9.756;2024-02-26T15:12:47;10.30;85.40
3208;DHT22;1616;52.394;9.756;2024-02-26T15:15:14;10.30;85.10
3208;DHT22;1616;52.394;9.756;2024-02-26T15:17:40;10.30;85.30
3208;DHT22;1616;52.394;9.756;2024-02-26T15:20:06;10.30;85.40
3208;DHT22;1616;52.394;9.756;2024-02-26T15:22:34;10.40;85.50
3208;DHT22;1616;52.394;9.756;2024-02-26T15:24:59;10.40;85.60
3208;DHT22;1616;52.394;9.756;2024-02-26T15:27:25;10.40;85.50
3208;DHT22;1616;52.394;9.756;2024-02-26T15:29:51;10.40;85.80
3208;DHT22;1616;52.394;9.756;2024-02-26T15:32:23;10.40;85.70
3208;DHT22;1616;52.394;9.756;2024-02-26T15:34:50;10.40;85.40
3208;DHT22;1616;52.394;9.756;2024-02-26T15:37:16;10.40;85.40
3208;DHT22;1616;52.394;9.756;2024-02-26T15:39:41;10.30;85.30
3208;DHT22;1616;52.394;9.756;2024-02-26T15:42:07;10.30;85.50
3208;DHT22;1616;52.394;9.756;2024-02-26T15:44:33;10.30;88.10
3208;DHT22;1616;52.394;9.756;2024-02-26T15:46:58;10.40;85.70
3208;DHT22;1616;52.394;9.756;2024-02-26T15:49:25;10.30;88.20
3208;DHT22;1616;52.394;9.756;2024-02-26T15:51:50;10.30;86.00
3208;DHT22;1616;52.394;9.756;2024-02-26T15:54:16;10.20;86.20
3208;DHT22;1616;52.394;9.756;2024-02-26T15:56:42;10.20;86.40
3208;DHT22;1616;52.394;9.756;2024-02-26T15:59:07;10.20;86.70
3208;DHT22;1616;52.394;9.756;2024-02-26T16:01:34;10.20;87.10
3208;DHT22;1616;52.394;9.756;2024-02-26T16:04:00;10.20;87.00
3208;DHT22;1616;52.394;9.756;2024-02-26T16:06:39;10.10;87.10
3208;DHT22;1616;52.394;9.756;2024-02-26T16:09:08;10.10;87.30